Time;durP1;ratioP1;P1;durP2;ratioP2;P2;SDS_P1;SDS_P2;PMS_P1;PMS_P2;Temp;Humidity;BMP_temperature;BMP_pressure;BME280_temperature;BME280_humidity;BME280_pressure;Samples;Min_cycle;Max_cycle;Signal;HPM_P1;HPM_P2
2022/05/02 00:00:52;;;;;;;12.07;9.18;;;;;;;;;;5033661;28;20021;-74
2022/05/02 00:03:19;;;;;;;13.05;8.95;;;;;;;;;;5015781;28;20021;-74
2022/05/02 00:05:45;;;;;;;9.35;7.22;;;;;;;;;;5033410;28;20442;-73
2022/05/02 00:08:10;;;;;;;8.02;6.57;;;;;;;;;;5035041;28;20044;-74
2022/05/02 00:10:36;;;;;;;7.90;6.93;;;;;;;;;;5036974;28;20042;-73
2022/05/02 00:13:02;;;;;;;7.88;7.07;;;;;;;;;;5037439;28;20088;-77
2022/05/02 00:15:29;;;;;;;9.02;7.13;;;;;;;;;;5019301;28;20696;-77
2022/05/02 00:17:58;;;;;;;9.48;7.00;;;;;;;;;;5036866;28;20030;-77
2022/05/02 00:20:30;;;;;;;8.32;7.03;;;;;;;;;;5037168;28;20384;-77
2022/05/02 00:22:57;;;;;;;8.98;6.82;;;;;;;;;;5037359;28;20033;-77
2022/05/02 00:25:22;;;;;;;8.15;6.72;;;;;;;;;;5002490;28;20017;-77
2022/05/02 00:27:49;;;;;;;7.07;5.93;;;;;;;;;;5036491;28;20021;-77
2022/05/02 00:30:15;;;;;;;7.80;6.43;;;;;;;;;;5037108;28;20458;-76
2022/05/02 00:32:44;;;;;;;7.47;6.75;;;;;;;;;;5036550;28;20064;-76
2022/05/02 00:35:10;;;;;;;7.60;6.65;;;;;;;;;;5036442;28;20053;-75
2022/05/02 00:37:45;;;;;;;10.43;7.18;;;;;;;;;;5036574;28;20616;-75
2022/05/02 00:40:11;;;;;;;8.63;7.72;;;;;;;;;;5018528;28;20029;-75
2022/05/02 00:42:36;;;;;;;8.60;7.38;;;;;;;;;;5018831;28;20049;-75
2022/05/02 00:45:04;;;;;;;11.13;7.85;;;;;;;;;;5036641;28;20080;-75
2022/05/02 00:47:29;;;;;;;10.43;7.90;;;;;;;;;;5036841;28;20060;-75
2022/05/02 00:49:54;;;;;;;9.85;7.82;;;;;;;;;;5036370;28;20033;-75
2022/05/02 00:52:20;;;;;;;9.50;7.72;;;;;;;;;;5036076;28;20120;-76
2022/05/02 00:54:46;;;;;;;8.05;6.93;;;;;;;;;;5036735;28;20037;-76
2022/05/02 00:57:12;;;;;;;8.85;6.65;;;;;;;;;;5036432;28;20095;-76
2022/05/02 00:59:38;;;;;;;6.90;6.10;;;;;;;;;;5036333;28;20457;-76
2022/05/02 01:02:04;;;;;;;6.88;6.03;;;;;;;;;;5036293;28;20021;-74
2022/05/02 01:04:31;;;;;;;6.80;6.20;;;;;;;;;;5028302;28;20112;-73
2022/05/02 01:07:18;;;;;;;6.03;5.50;;;;;;;;;;5036481;28;20036;-74
2022/05/02 01:09:45;;;;;;;6.80;6.00;;;;;;;;;;5018293;28;20351;-74
2022/05/02 01:12:12;;;;;;;6.47;5.88;;;;;;;;;;5018546;28;20045;-74
2022/05/02 01:14:38;;;;;;;6.47;5.88;;;;;;;;;;5036017;28;20037;-73
2022/05/02 01:17:04;;;;;;;6.25;5.65;;;;;;;;;;5036047;28;20060;-73
2022/05/02 01:19:29;;;;;;;5.88;5.38;;;;;;;;;;5035621;28;20105;-74
2022/05/02 01:21:55;;;;;;;8.85;6.60;;;;;;;;;;5018373;28;20357;-73
2022/05/02 01:24:20;;;;;;;8.75;6.47;;;;;;;;;;5036100;28;20030;-73
2022/05/02 01:26:45;;;;;;;7.10;6.40;;;;;;;;;;5035882;28;20445;-73
2022/05/02 01:29:11;;;;;;;10.15;7.25;;;;;;;;;;5035596;28;20033;-72
2022/05/02 01:31:36;;;;;;;8.20;7.40;;;;;;;;;;5035841;28;20025;-72
2022/05/02 01:34:01;;;;;;;10.10;7.22;;;;;;;;;;5036034;28;20025;-72
2022/05/02 01:36:27;;;;;;;12.25;8.57;;;;;;;;;;5035724;28;20032;-72
2022/05/02 01:38:52;;;;;;;12.77;9.00;;;;;;;;;;5035807;28;20049;-72
2022/05/02 01:41:18;;;;;;;11.18;8.75;;;;;;;;;;5035788;28;20389;-74
2022/05/02 01:43:43;;;;;;;13.20;8.25;;;;;;;;;;5035397;28;20033;-73
2022/05/02 01:46:09;;;;;;;12.32;9.45;;;;;;;;;;5035494;28;20013;-73
2022/05/02 01:48:36;;;;;;;11.45;9.40;;;;;;;;;;5035359;28;20071;-75
2022/05/02 01:51:01;;;;;;;12.05;8.85;;;;;;;;;;5035633;28;20022;-75
2022/05/02 01:53:27;;;;;;;11.95;8.57;;;;;;;;;;5035429;28;20029;-75
2022/05/02 01:55:52;;;;;;;10.98;8.63;;;;;;;;;;5035291;28;20021;-74
2022/05/02 01:58:18;;;;;;;10.48;8.23;;;;;;;;;;5017638;28;20037;-74
2022/05/02 02:00:44;;;;;;;11.75;8.63;;;;;;;;;;5034979;28;20110;-75
2022/05/02 02:03:10;;;;;;;11.10;8.18;;;;;;;;;;5017419;28;20026;-76
2022/05/02 02:08:24;;;;;;;9.18;8.02;;;;;;;;;;5017528;28;20041;-76
2022/05/02 02:10:50;;;;;;;11.45;8.15;;;;;;;;;;5034813;28;20076;-76
2022/05/02 02:13:16;;;;;;;10.55;8.90;;;;;;;;;;5017510;28;20044;-77
2022/05/02 02:15:41;;;;;;;10.07;8.65;;;;;;;;;;5017144;28;20029;-77
2022/05/02 02:18:07;;;;;;;8.20;7.40;;;;;;;;;;5034279;28;20046;-78
2022/05/02 02:20:33;;;;;;;12.20;7.80;;;;;;;;;;5034327;28;20359;-77
2022/05/02 02:22:59;;;;;;;8.27;6.78;;;;;;;;;;5034715;28;20029;-76
2022/05/02 02:25:24;;;;;;;9.40;7.13;;;;;;;;;;5017107;28;20056;-76
2022/05/02 02:27:50;;;;;;;9.43;6.65;;;;;;;;;;5034653;28;20041;-77
2022/05/02 02:30:16;;;;;;;11.32;8.32;;;;;;;;;;5034032;28;20104;-76
2022/05/02 02:32:42;;;;;;;10.75;7.80;;;;;;;;;;5034479;28;20065;-76
2022/05/02 02:35:08;;;;;;;9.88;7.50;;;;;;;;;;5034422;28;20056;-76
2022/05/02 02:37:33;;;;;;;8.82;7.13;;;;;;;;;;5034387;28;20068;-76
2022/05/02 02:39:59;;;;;;;8.60;7.00;;;;;;;;;;5034605;28;20018;-76
2022/05/02 02:42:24;;;;;;;8.20;6.63;;;;;;;;;;5034592;28;20381;-71
2022/05/02 02:44:50;;;;;;;7.75;6.85;;;;;;;;;;5016558;28;20428;-71
2022/05/02 02:47:16;;;;;;;8.43;6.80;;;;;;;;;;5034244;28;20042;-76
2022/05/02 02:49:41;;;;;;;8.35;6.55;;;;;;;;;;5016720;28;20037;-76
2022/05/02 02:52:08;;;;;;;5.85;5.25;;;;;;;;;;5016975;28;20385;-76
2022/05/02 02:54:33;;;;;;;6.03;5.07;;;;;;;;;;5034260;28;20021;-76
2022/05/02 02:57:05;;;;;;;6.53;5.28;;;;;;;;;;5033892;28;20484;-75
2022/05/02 02:59:30;;;;;;;9.52;6.22;;;;;;;;;;5034269;28;20112;-76
2022/05/02 03:01:56;;;;;;;8.77;6.73;;;;;;;;;;5034062;28;20107;-72
2022/05/02 03:07:07;;;;;;;8.13;6.88;;;;;;;;;;5033926;28;20048;-72
2022/05/02 03:09:33;;;;;;;8.77;6.72;;;;;;;;;;5034361;28;20109;-72
2022/05/02 03:11:58;;;;;;;7.28;6.60;;;;;;;;;;5033919;28;20123;-71
2022/05/02 03:14:24;;;;;;;7.28;6.43;;;;;;;;;;5034077;28;20025;-72
2022/05/02 03:16:49;;;;;;;8.63;6.93;;;;;;;;;;5015902;28;20112;-71
2022/05/02 03:19:14;;;;;;;8.02;7.18;;;;;;;;;;5034158;28;20033;-71
2022/05/02 03:21:40;;;;;;;7.93;7.13;;;;;;;;;;5016422;28;20117;-72
2022/05/02 03:24:06;;;;;;;9.25;7.55;;;;;;;;;;5033983;28;20040;-73
2022/05/02 03:26:31;;;;;;;6.95;6.30;;;;;;;;;;5016097;28;20478;-72
2022/05/02 03:28:57;;;;;;;7.47;6.28;;;;;;;;;;5033953;28;20045;-72
2022/05/02 03:31:25;;;;;;;6.93;6.00;;;;;;;;;;5033851;28;20035;-75
2022/05/02 03:33:51;;;;;;;6.43;5.55;;;;;;;;;;5033933;28;20021;-75
2022/05/02 03:36:19;;;;;;;7.50;6.05;;;;;;;;;;5033913;28;20070;-75
2022/05/02 03:38:44;;;;;;;6.65;6.00;;;;;;;;;;4999686;28;20017;-75
2022/05/02 03:41:10;;;;;;;6.20;5.53;;;;;;;;;;5016571;28;20151;-75
2022/05/02 03:43:36;;;;;;;7.25;6.03;;;;;;;;;;5037727;28;20036;-75
2022/05/02 03:46:03;;;;;;;10.07;6.43;;;;;;;;;;5037619;28;20530;-74
2022/05/02 03:48:28;;;;;;;6.65;5.47;;;;;;;;;;5037901;28;20138;-74
2022/05/02 03:50:53;;;;;;;6.60;5.90;;;;;;;;;;5037891;28;20042;-74
2022/05/02 03:53:19;;;;;;;6.25;5.65;;;;;;;;;;5037705;28;20033;-74
2022/05/02 03:55:47;;;;;;;5.95;5.35;;;;;;;;;;5037460;28;20037;-73
2022/05/02 03:58:13;;;;;;;5.78;5.07;;;;;;;;;;5019280;28;20027;-73
2022/05/02 04:00:38;;;;;;;5.68;5.18;;;;;;;;;;5019690;28;20112;-73
2022/05/02 04:03:04;;;;;;;6.10;5.50;;;;;;;;;;5037470;28;20022;-74
2022/05/02 04:05:30;;;;;;;6.03;5.40;;;;;;;;;;5037690;28;20033;-75
2022/05/02 04:07:56;;;;;;;6.82;5.55;;;;;;;;;;5019308;28;20111;-75
2022/05/02 04:10:21;;;;;;;6.70;5.70;;;;;;;;;;5036664;28;20064;-75
2022/05/02 04:12:47;;;;;;;8.75;6.15;;;;;;;;;;5017367;28;20481;-75
2022/05/02 04:15:12;;;;;;;8.52;5.82;;;;;;;;;;5000044;28;20030;-75
2022/05/02 04:17:38;;;;;;;6.72;5.75;;;;;;;;;;5017567;28;20032;-75
2022/05/02 04:20:04;;;;;;;9.95;6.18;;;;;;;;;;4999732;28;20496;-76
2022/05/02 04:22:29;;;;;;;7.50;5.38;;;;;;;;;;5017158;28;20026;-76
2022/05/02 04:24:55;;;;;;;7.38;5.53;;;;;;;;;;5017440;28;20021;-76
2022/05/02 04:27:20;;;;;;;7.07;5.32;;;;;;;;;;5017232;28;20377;-77
2022/05/02 04:29:48;;;;;;;9.07;5.72;;;;;;;;;;5016716;28;20153;-76
2022/05/02 04:32:13;;;;;;;6.30;5.68;;;;;;;;;;5016355;28;20033;-77
2022/05/02 04:34:40;;;;;;;7.95;5.82;;;;;;;;;;5016423;28;20030;-77
2022/05/02 04:37:07;;;;;;;7.03;5.75;;;;;;;;;;5016894;28;20022;-78
2022/05/02 04:39:33;;;;;;;7.20;5.75;;;;;;;;;;4999263;28;20386;-78
2022/05/02 04:41:58;;;;;;;6.85;5.78;;;;;;;;;;5016975;28;20018;-77
2022/05/02 04:44:23;;;;;;;8.80;5.75;;;;;;;;;;4999435;28;20405;-76
2022/05/02 04:46:49;;;;;;;9.30;6.13;;;;;;;;;;4999222;28;20022;-77
2022/05/02 04:49:14;;;;;;;8.52;5.97;;;;;;;;;;5016251;28;20084;-77
2022/05/02 04:51:40;;;;;;;11.20;6.32;;;;;;;;;;5015475;28;20485;-77
2022/05/02 04:54:05;;;;;;;8.38;7.53;;;;;;;;;;5015183;28;20038;-77
2022/05/02 04:56:30;;;;;;;7.05;5.90;;;;;;;;;;5015931;28;20030;-76
2022/05/02 04:58:56;;;;;;;6.93;5.95;;;;;;;;;;5016448;28;20029;-77
2022/05/02 05:01:25;;;;;;;6.78;5.72;;;;;;;;;;4999254;28;20010;-76
2022/05/02 05:03:51;;;;;;;5.47;4.93;;;;;;;;;;5016497;28;20029;-76
2022/05/02 05:06:16;;;;;;;7.03;6.25;;;;;;;;;;5016387;28;20112;-77
2022/05/02 05:08:42;;;;;;;10.98;8.18;;;;;;;;;;5016131;28;20072;-77
2022/05/02 05:11:27;;;;;;;9.50;7.35;;;;;;;;;;5016335;28;20128;-77
2022/05/02 05:17:04;;;;;;;9.57;5.70;;;;;;;;;;5015896;28;20029;-77
2022/05/02 05:19:34;;;;;;;7.28;5.68;;;;;;;;;;5015789;28;20073;-77
2022/05/02 05:22:01;;;;;;;11.05;7.32;;;;;;;;;;5016223;28;20022;-77
2022/05/02 05:24:46;;;;;;;16.98;9.48;;;;;;;;;;5015988;28;20030;-77
2022/05/02 05:27:14;;;;;;;19.88;13.05;;;;;;;;;;4998419;28;20125;-77
2022/05/02 05:30:05;;;;;;;8.30;5.85;;;;;;;;;;5015967;28;20034;-77
2022/05/02 05:32:40;;;;;;;7.40;6.60;;;;;;;;;;4998499;28;20033;-77
2022/05/02 05:35:07;;;;;;;8.02;6.22;;;;;;;;;;5015820;28;20085;-77
2022/05/02 05:38:00;;;;;;;11.23;7.50;;;;;;;;;;5015648;28;20029;-76
2022/05/02 05:40:26;;;;;;;8.43;4.65;;;;;;;;;;5016015;28;20362;-79
2022/05/02 05:43:16;;;;;;;6.47;5.25;;;;;;;;;;4998165;28;20022;-78
2022/05/02 05:45:46;;;;;;;7.72;5.93;;;;;;;;;;4998064;28;20026;-78
2022/05/02 05:48:33;;;;;;;13.95;12.48;;;;;;;;;;5015568;28;20442;-77
2022/05/02 05:51:29;;;;;;;9.75;5.43;;;;;;;;;;5015347;28;20036;-80
2022/05/02 05:54:13;;;;;;;8.10;5.88;;;;;;;;;;4984345;28;20544;-79
2022/05/02 05:56:50;;;;;;;7.93;5.00;;;;;;;;;;5013909;28;20453;-79
2022/05/02 05:59:34;;;;;;;7.30;5.85;;;;;;;;;;4996299;28;20034;-78
2022/05/02 06:02:00;;;;;;;6.43;5.57;;;;;;;;;;4996301;28;20026;-78
2022/05/02 06:04:26;;;;;;;8.17;5.17;;;;;;;;;;4996129;28;20018;-78
2022/05/02 06:06:53;;;;;;;10.13;6.38;;;;;;;;;;5013638;28;20338;-78
2022/05/02 06:09:19;;;;;;;9.20;7.38;;;;;;;;;;4996089;28;20076;-76
2022/05/02 06:11:48;;;;;;;9.38;6.05;;;;;;;;;;5013473;28;20490;-76
2022/05/02 06:14:14;;;;;;;5.95;5.35;;;;;;;;;;5013545;28;20124;-77
2022/05/02 06:19:26;;;;;;;5.22;4.47;;;;;;;;;;5013496;28;20096;-77
2022/05/02 06:21:53;;;;;;;7.18;5.90;;;;;;;;;;5013446;28;20022;-77
2022/05/02 06:24:18;;;;;;;6.63;5.20;;;;;;;;;;5013378;28;20025;-77
2022/05/02 06:26:45;;;;;;;11.25;7.45;;;;;;;;;;5013305;28;20084;-77
2022/05/02 06:29:11;;;;;;;11.45;6.28;;;;;;;;;;5013321;28;20045;-77
2022/05/02 06:31:37;;;;;;;9.25;5.28;;;;;;;;;;5013293;28;20458;-77
2022/05/02 06:34:04;;;;;;;11.13;7.70;;;;;;;;;;5013303;28;20041;-76
2022/05/02 06:36:33;;;;;;;13.40;8.68;;;;;;;;;;5013211;28;20021;-77
2022/05/02 06:39:01;;;;;;;7.43;6.10;;;;;;;;;;4995529;28;20026;-77
2022/05/02 06:41:38;;;;;;;5.00;4.47;;;;;;;;;;5013098;28;20112;-77
2022/05/02 06:44:11;;;;;;;6.22;4.60;;;;;;;;;;5013135;28;20033;-77
2022/05/02 06:46:40;;;;;;;4.78;4.07;;;;;;;;;;4995490;28;20037;-77
2022/05/02 06:49:16;;;;;;;7.65;5.88;;;;;;;;;;5012970;28;20048;-77
2022/05/02 06:51:45;;;;;;;5.65;4.50;;;;;;;;;;5012968;28;20065;-77
2022/05/02 06:54:25;;;;;;;4.82;4.25;;;;;;;;;;5012929;28;20470;-76
2022/05/02 06:56:55;;;;;;;4.70;3.97;;;;;;;;;;5012732;28;20080;-77
2022/05/02 06:59:34;;;;;;;7.22;5.13;;;;;;;;;;4995122;28;20022;-77
2022/05/02 07:02:20;;;;;;;5.78;4.38;;;;;;;;;;4995320;28;20113;-77
2022/05/02 07:04:50;;;;;;;6.20;4.80;;;;;;;;;;5002102;28;20085;-77
2022/05/02 07:07:18;;;;;;;7.18;4.50;;;;;;;;;;5012798;28;20125;-77
2022/05/02 07:09:45;;;;;;;5.07;4.05;;;;;;;;;;5012465;28;20042;-75
2022/05/02 07:12:22;;;;;;;4.68;4.28;;;;;;;;;;5027636;28;20080;-75
2022/05/02 07:15:02;;;;;;;4.35;3.95;;;;;;;;;;5032448;28;20030;-75
2022/05/02 07:17:42;;;;;;;4.97;4.25;;;;;;;;;;5031834;28;20021;-75
2022/05/02 07:20:18;;;;;;;6.70;3.78;;;;;;;;;;5032296;28;20022;-75
2022/05/02 07:22:52;;;;;;;4.47;4.07;;;;;;;;;;5032344;28;20072;-75
2022/05/02 07:25:19;;;;;;;4.90;4.40;;;;;;;;;;5032310;28;20029;-75
2022/05/02 07:28:03;;;;;;;8.02;4.25;;;;;;;;;;5032317;28;20022;-74
2022/05/02 07:30:30;;;;;;;4.53;4.18;;;;;;;;;;5032281;28;20029;-74
2022/05/02 07:32:55;;;;;;;4.25;3.85;;;;;;;;;;5032249;28;20021;-74
2022/05/02 07:35:21;;;;;;;4.85;4.30;;;;;;;;;;5032246;28;20120;-74
2022/05/02 07:37:47;;;;;;;5.10;4.60;;;;;;;;;;5032162;28;20036;-74
2022/05/02 07:40:14;;;;;;;5.90;3.55;;;;;;;;;;5032239;28;20456;-74
2022/05/02 07:42:40;;;;;;;4.80;3.85;;;;;;;;;;5032215;28;20022;-75
2022/05/02 07:45:10;;;;;;;8.00;4.70;;;;;;;;;;5032212;28;20029;-74
2022/05/02 07:47:36;;;;;;;6.95;5.15;;;;;;;;;;5032318;28;20053;-75
2022/05/02 07:50:02;;;;;;;5.40;4.78;;;;;;;;;;5032647;28;20061;-74
2022/05/02 07:52:28;;;;;;;4.68;4.28;;;;;;;;;;5014582;28;20078;-70
2022/05/02 07:54:55;;;;;;;4.43;4.03;;;;;;;;;;5032107;28;20045;-63
2022/05/02 07:57:21;;;;;;;4.80;4.47;;;;;;;;;;5032039;28;20083;-64
2022/05/02 07:59:50;;;;;;;4.63;4.18;;;;;;;;;;5032054;28;20018;-64
2022/05/02 08:02:16;;;;;;;6.75;4.43;;;;;;;;;;5032113;28;20025;-64
2022/05/02 08:04:42;;;;;;;5.35;4.47;;;;;;;;;;5032002;28;20136;-78
2022/05/02 08:07:09;;;;;;;6.80;5.22;;;;;;;;;;4997850;28;20024;-77
2022/05/02 08:09:53;;;;;;;5.28;4.28;;;;;;;;;;5031945;28;20396;-77
2022/05/02 08:12:18;;;;;;;4.10;3.80;;;;;;;;;;5031712;28;20045;-78
2022/05/02 08:14:56;;;;;;;3.58;3.25;;;;;;;;;;5031966;28;20040;-77
2022/05/02 08:17:26;;;;;;;4.40;4.00;;;;;;;;;;5031760;28;20030;-77
2022/05/02 08:20:07;;;;;;;5.57;4.72;;;;;;;;;;5014225;28;20025;-77
2022/05/02 08:28:34;;;;;;;4.55;4.05;;;;;;;;;;5014506;28;20080;-77
2022/05/02 08:31:20;;;;;;;3.78;3.47;;;;;;;;;;5035413;28;20061;-77
2022/05/02 08:33:58;;;;;;;4.32;3.28;;;;;;;;;;5034708;28;20034;-77
2022/05/02 08:36:30;;;;;;;5.22;3.65;;;;;;;;;;5018657;28;20029;-77
2022/05/02 08:39:01;;;;;;;6.18;3.90;;;;;;;;;;5036295;28;20021;-79
2022/05/02 08:41:34;;;;;;;5.40;4.47;;;;;;;;;;5018681;28;20037;-78
2022/05/02 08:44:08;;;;;;;6.53;3.88;;;;;;;;;;5036216;28;20024;-78
2022/05/02 08:46:49;;;;;;;6.22;3.97;;;;;;;;;;5018483;28;20397;-78
2022/05/02 08:49:35;;;;;;;4.18;3.83;;;;;;;;;;5018342;28;20439;-78
2022/05/02 08:52:12;;;;;;;4.35;3.70;;;;;;;;;;5036306;28;20424;-76
2022/05/02 08:54:44;;;;;;;7.25;4.85;;;;;;;;;;5018428;28;20056;-76
2022/05/02 08:57:28;;;;;;;4.55;4.20;;;;;;;;;;5035956;28;20124;-76
2022/05/02 09:00:02;;;;;;;6.35;4.38;;;;;;;;;;5035856;28;20033;-76
2022/05/02 09:03:00;;;;;;;4.30;3.88;;;;;;;;;;5035831;28;20029;-76
2022/05/02 09:05:37;;;;;;;3.72;3.53;;;;;;;;;;4992120;28;20045;-68
2022/05/02 09:08:21;;;;;;;7.43;3.95;;;;;;;;;;5018056;28;20033;-77
2022/05/02 09:11:31;;;;;;;5.10;3.60;;;;;;;;;;5035508;28;20029;-77
2022/05/02 09:14:26;;;;;;;5.10;4.18;;;;;;;;;;5035718;28;20040;-77
2022/05/02 09:17:02;;;;;;;4.88;4.20;;;;;;;;;;5035636;28;20363;-77
2022/05/02 09:19:30;;;;;;;5.45;3.65;;;;;;;;;;5035560;28;20060;-77
2022/05/02 09:22:25;;;;;;;5.93;3.70;;;;;;;;;;5034699;28;20022;-77
2022/05/02 09:25:04;;;;;;;4.45;4.10;;;;;;;;;;5016912;28;20175;-77
2022/05/02 09:27:48;;;;;;;4.80;4.20;;;;;;;;;;5036248;28;20044;-77
2022/05/02 09:30:28;;;;;;;5.65;4.85;;;;;;;;;;5033335;28;20033;-77
2022/05/02 09:33:03;;;;;;;7.30;3.90;;;;;;;;;;5033979;28;20069;-77
2022/05/02 09:35:33;;;;;;;4.68;4.28;;;;;;;;;;5033148;28;20310;-77
2022/05/02 09:38:22;;;;;;;4.47;3.90;;;;;;;;;;5033806;28;20083;-77
2022/05/02 09:40:48;;;;;;;4.80;4.40;;;;;;;;;;5034873;28;20029;-77
2022/05/02 09:49:39;;;;;;;6.45;4.47;;;;;;;;;;5031418;28;20386;-77
2022/05/02 09:52:15;;;;;;;4.53;4.18;;;;;;;;;;5035582;28;20048;-77
2022/05/02 09:57:45;;;;;;;4.30;3.85;;;;;;;;;;5035145;28;20474;-77
2022/05/02 10:03:08;;;;;;;4.13;3.53;;;;;;;;;;5035095;28;20033;-76
2022/05/02 10:05:34;;;;;;;5.05;4.65;;;;;;;;;;5035030;28;20041;-76
2022/05/02 10:08:13;;;;;;;4.65;4.20;;;;;;;;;;5034774;28;20033;-76
2022/05/02 10:10:52;;;;;;;10.82;6.78;;;;;;;;;;5016686;28;20500;-76
2022/05/02 10:13:17;;;;;;;7.03;5.80;;;;;;;;;;5034538;28;20072;-76
2022/05/02 10:15:45;;;;;;;6.30;4.43;;;;;;;;;;5034534;28;20029;-76
2022/05/02 10:18:11;;;;;;;5.68;4.00;;;;;;;;;;5034484;28;20291;-76
2022/05/02 10:20:55;;;;;;;4.55;4.13;;;;;;;;;;5034429;28;20024;-76
2022/05/02 10:23:39;;;;;;;5.78;4.20;;;;;;;;;;5016616;28;20371;-76
2022/05/02 10:26:23;;;;;;;4.68;3.97;;;;;;;;;;5034269;28;20039;-76
2022/05/02 10:28:54;;;;;;;4.15;3.33;;;;;;;;;;5034247;28;20029;-77
2022/05/02 10:31:21;;;;;;;12.73;10.25;;;;;;;;;;5016496;28;20447;-76
2022/05/02 10:33:50;;;;;;;5.32;4.82;;;;;;;;;;5034187;28;20029;-76
2022/05/02 10:36:17;;;;;;;4.70;4.40;;;;;;;;;;5034128;28;20120;-76
2022/05/02 10:38:53;;;;;;;44.95;28.55;;;;;;;;;;5016016;28;20064;-76
2022/05/02 10:41:22;;;;;;;55.03;27.67;;;;;;;;;;5016282;28;20397;-76
2022/05/02 10:43:50;;;;;;;23.27;16.55;;;;;;;;;;5034085;28;20105;-77
2022/05/02 10:46:16;;;;;;;9.75;8.85;;;;;;;;;;5033931;28;20026;-77
2022/05/02 10:48:45;;;;;;;8.40;7.35;;;;;;;;;;5033893;28;20026;-77
2022/05/02 10:51:12;;;;;;;4.53;4.13;;;;;;;;;;5015626;28;20037;-77
2022/05/02 10:53:57;;;;;;;5.43;4.47;;;;;;;;;;5033791;28;20630;-77
2022/05/02 10:56:44;;;;;;;4.57;3.90;;;;;;;;;;5033777;28;20108;-78
2022/05/02 10:59:10;;;;;;;4.50;3.95;;;;;;;;;;5033165;28;20057;-78
2022/05/02 11:01:57;;;;;;;4.88;4.18;;;;;;;;;;5033758;28;20027;-78
2022/05/02 11:04:41;;;;;;;6.55;4.10;;;;;;;;;;5033642;28;20033;-78
2022/05/02 11:07:12;;;;;;;4.47;4.05;;;;;;;;;;5034327;28;20026;-83
2022/05/02 11:09:48;;;;;;;3.85;3.55;;;;;;;;;;5033774;28;20385;-82
2022/05/02 11:12:14;;;;;;;5.90;3.80;;;;;;;;;;5018363;28;20050;-78
2022/05/02 11:15:05;;;;;;;4.18;3.88;;;;;;;;;;5013858;28;20101;-78
2022/05/02 11:17:37;;;;;;;55.83;42.65;;;;;;;;;;4996137;28;20029;-78
2022/05/02 11:22:58;;;;;;;4.63;4.32;;;;;;;;;;5011082;28;20026;-78
2022/05/02 11:25:28;;;;;;;4.78;3.70;;;;;;;;;;5013959;28;20018;-78
2022/05/02 11:28:03;;;;;;;3.95;3.42;;;;;;;;;;5013616;28;20030;-78
2022/05/02 11:30:51;;;;;;;5.45;3.28;;;;;;;;;;4996281;28;20475;-78
2022/05/02 11:33:22;;;;;;;4.13;3.70;;;;;;;;;;5014011;28;20030;-78
2022/05/02 11:35:54;;;;;;;4.82;3.60;;;;;;;;;;4996121;28;20026;-78
2022/05/02 11:38:20;;;;;;;3.95;3.47;;;;;;;;;;5013703;28;20029;-78
2022/05/02 11:40:46;;;;;;;3.63;3.30;;;;;;;;;;4994190;28;20018;-78
2022/05/02 11:43:19;;;;;;;3.83;3.50;;;;;;;;;;4993435;28;20313;-78
2022/05/02 11:45:54;;;;;;;3.72;3.42;;;;;;;;;;5010929;28;20026;-77
2022/05/02 11:48:20;;;;;;;3.55;3.25;;;;;;;;;;4993790;28;20036;-78
2022/05/02 11:50:46;;;;;;;3.73;3.43;;;;;;;;;;5011172;28;20029;-78
2022/05/02 11:53:14;;;;;;;3.60;3.33;;;;;;;;;;4993624;28;20308;-78
2022/05/02 11:55:40;;;;;;;4.07;3.75;;;;;;;;;;5011180;28;20541;-77
2022/05/02 11:58:13;;;;;;;4.40;4.00;;;;;;;;;;5011227;28;20471;-77
2022/05/02 12:00:41;;;;;;;4.43;4.03;;;;;;;;;;5011961;28;20026;-77
2022/05/02 12:03:09;;;;;;;3.10;2.90;;;;;;;;;;5013998;28;20018;-77
2022/05/02 12:05:49;;;;;;;3.72;3.40;;;;;;;;;;5016942;28;20109;-77
2022/05/02 12:08:34;;;;;;;3.78;3.53;;;;;;;;;;5017270;28;20038;-77
2022/05/02 12:11:07;;;;;;;3.50;3.30;;;;;;;;;;5021857;28;20493;-78
2022/05/02 12:13:35;;;;;;;4.90;3.70;;;;;;;;;;5036844;28;20025;-78
2022/05/02 12:16:19;;;;;;;3.72;3.53;;;;;;;;;;5036806;28;20029;-77
2022/05/02 12:18:46;;;;;;;4.40;4.00;;;;;;;;;;5036675;28;20037;-78
2022/05/02 12:21:14;;;;;;;3.80;3.20;;;;;;;;;;5019088;28;20017;-77
2022/05/02 12:23:40;;;;;;;4.05;3.75;;;;;;;;;;5036696;28;20428;-77
2022/05/02 12:26:12;;;;;;;4.00;3.50;;;;;;;;;;5018829;28;20013;-79
2022/05/02 12:28:40;;;;;;;3.85;3.58;;;;;;;;;;5036565;28;20040;-77
2022/05/02 12:31:06;;;;;;;3.30;3.10;;;;;;;;;;5036686;28;20380;-77
2022/05/02 12:33:32;;;;;;;4.20;3.53;;;;;;;;;;5036447;28;20068;-77
2022/05/02 12:35:58;;;;;;;3.63;3.33;;;;;;;;;;5002368;28;20064;-77
2022/05/02 12:38:26;;;;;;;4.05;3.55;;;;;;;;;;5036374;28;20037;-77
2022/05/02 12:40:52;;;;;;;4.78;4.38;;;;;;;;;;5018613;28;20096;-77
2022/05/02 12:43:24;;;;;;;5.60;5.13;;;;;;;;;;5036587;28;20068;-77
2022/05/02 12:45:50;;;;;;;4.78;4.30;;;;;;;;;;5036308;28;20034;-77
2022/05/02 12:48:19;;;;;;;5.07;4.38;;;;;;;;;;5018565;28;20034;-77
2022/05/02 12:50:45;;;;;;;5.65;3.70;;;;;;;;;;5036241;28;20057;-77
2022/05/02 12:56:10;;;;;;;4.78;4.38;;;;;;;;;;5036360;28;20045;-77
2022/05/02 13:01:21;;;;;;;6.00;3.90;;;;;;;;;;5035907;28;20057;-77
2022/05/02 13:03:54;;;;;;;4.22;3.90;;;;;;;;;;5035968;28;20024;-77
2022/05/02 13:06:20;;;;;;;4.15;3.75;;;;;;;;;;5035898;28;20021;-77
2022/05/02 13:08:45;;;;;;;5.38;4.28;;;;;;;;;;5035826;28;20067;-77
2022/05/02 13:11:25;;;;;;;7.75;4.85;;;;;;;;;;5035814;28;20095;-77
2022/05/02 13:13:52;;;;;;;5.00;4.50;;;;;;;;;;5017716;28;20117;-77
2022/05/02 13:16:24;;;;;;;9.02;7.95;;;;;;;;;;5017585;28;20083;-77
2022/05/02 13:18:50;;;;;;;6.20;4.85;;;;;;;;;;5035544;28;20065;-78
2022/05/02 13:21:16;;;;;;;6.82;4.88;;;;;;;;;;5035583;28;20064;-78
2022/05/02 13:23:44;;;;;;;4.35;3.88;;;;;;;;;;5035803;28;20519;-78
2022/05/02 13:26:15;;;;;;;31.38;15.02;;;;;;;;;;5035507;28;20017;-78
2022/05/02 13:28:59;;;;;;;14.55;9.52;;;;;;;;;;5035571;28;20053;-77
2022/05/02 13:31:34;;;;;;;6.57;5.90;;;;;;;;;;5035486;28;20033;-78
2022/05/02 13:34:01;;;;;;;6.70;5.95;;;;;;;;;;5035447;28;20049;-78
2022/05/02 13:36:30;;;;;;;12.52;8.10;;;;;;;;;;5017637;28;20017;-78
2022/05/02 13:38:57;;;;;;;59.67;31.30;;;;;;;;;;5035154;28;20496;-78
2022/05/02 13:41:32;;;;;;;47.30;27.33;;;;;;;;;;5017567;28;20025;-77
2022/05/02 13:44:06;;;;;;;6.20;5.03;;;;;;;;;;5017353;28;20048;-78
2022/05/02 13:46:33;;;;;;;4.85;4.35;;;;;;;;;;5035088;28;20068;-78
2022/05/02 13:49:07;;;;;;;5.17;3.80;;;;;;;;;;5017350;28;20072;-78
2022/05/02 13:51:33;;;;;;;3.80;3.50;;;;;;;;;;5035119;28;20098;-77
2022/05/02 13:54:02;;;;;;;3.95;3.65;;;;;;;;;;5017208;28;20079;-77
2022/05/02 13:56:32;;;;;;;4.25;3.95;;;;;;;;;;5034957;28;20029;-77
2022/05/02 13:59:04;;;;;;;7.57;4.53;;;;;;;;;;5034746;28;20044;-77
2022/05/02 14:01:48;;;;;;;5.30;3.72;;;;;;;;;;5034853;28;20026;-77
2022/05/02 14:04:51;;;;;;;4.65;3.33;;;;;;;;;;5034758;28;20025;-77
2022/05/02 14:07:16;;;;;;;3.65;3.35;;;;;;;;;;5034087;28;20053;-77
2022/05/02 14:09:44;;;;;;;4.07;3.67;;;;;;;;;;5034964;28;20067;-77
2022/05/02 14:12:12;;;;;;;4.25;3.90;;;;;;;;;;5034495;28;20528;-77
2022/05/02 14:15:05;;;;;;;274.13;124.85;;;;;;;;;;5034536;28;20064;-77
2022/05/02 14:17:42;;;;;;;118.57;55.35;;;;;;;;;;5030864;28;20041;-77
2022/05/02 14:20:29;;;;;;;48.13;28.45;;;;;;;;;;5034449;28;20022;-77
2022/05/02 14:23:01;;;;;;;5.53;4.90;;;;;;;;;;5034408;28;20041;-77
2022/05/02 14:25:34;;;;;;;4.45;4.05;;;;;;;;;;5034357;28;20032;-77
2022/05/02 14:28:00;;;;;;;4.57;4.18;;;;;;;;;;5033872;28;20059;-77
2022/05/02 14:30:27;;;;;;;4.38;3.97;;;;;;;;;;5016489;28;20432;-77
2022/05/02 14:32:55;;;;;;;6.60;5.93;;;;;;;;;;5016762;28;20029;-77
2022/05/02 14:35:21;;;;;;;6.10;5.50;;;;;;;;;;5034330;28;20022;-77
2022/05/02 14:37:47;;;;;;;4.30;3.90;;;;;;;;;;5034027;28;20030;-77
2022/05/02 14:40:12;;;;;;;6.50;4.13;;;;;;;;;;5034121;28;20372;-77
2022/05/02 14:42:39;;;;;;;5.35;4.15;;;;;;;;;;5034078;28;20108;-77
2022/05/02 14:45:04;;;;;;;4.05;3.67;;;;;;;;;;5034019;28;20033;-77
2022/05/02 14:47:32;;;;;;;4.70;3.70;;;;;;;;;;5034013;28;20086;-77
2022/05/02 14:49:57;;;;;;;5.43;3.75;;;;;;;;;;5033929;28;20029;-77
2022/05/02 14:52:23;;;;;;;4.45;3.90;;;;;;;;;;5033914;28;20125;-77
2022/05/02 14:54:50;;;;;;;4.50;4.13;;;;;;;;;;5033863;28;20064;-77
2022/05/02 14:57:18;;;;;;;5.05;4.50;;;;;;;;;;5015995;28;20025;-77
2022/05/02 14:59:45;;;;;;;3.70;3.40;;;;;;;;;;5033806;28;20202;-78
2022/05/02 15:02:11;;;;;;;4.10;3.72;;;;;;;;;;5033874;28;20037;-78
2022/05/02 15:04:38;;;;;;;4.78;3.88;;;;;;;;;;5033733;28;20021;-78
2022/05/02 15:07:05;;;;;;;3.63;3.42;;;;;;;;;;5015990;28;20037;-78
2022/05/02 15:12:38;;;;;;;4.35;3.95;;;;;;;;;;5033513;28;20509;-78
2022/05/02 15:15:23;;;;;;;6.32;3.95;;;;;;;;;;5033707;28;20181;-78
2022/05/02 15:18:10;;;;;;;3.90;3.60;;;;;;;;;;5033556;28;20038;-78
2022/05/02 15:20:46;;;;;;;4.38;3.97;;;;;;;;;;5015740;28;20025;-78
2022/05/02 15:23:14;;;;;;;4.40;3.67;;;;;;;;;;5033456;28;20036;-78
2022/05/02 15:25:48;;;;;;;3.95;3.65;;;;;;;;;;5033526;28;20022;-78
2022/05/02 15:36:48;;;;;;;3.70;3.50;;;;;;;;;;5033364;28;20025;-78
2022/05/02 15:39:34;;;;;;;3.60;3.30;;;;;;;;;;5037117;28;20037;-78
2022/05/02 15:42:02;;;;;;;3.47;3.17;;;;;;;;;;5019949;28;20038;-78
2022/05/02 15:44:28;;;;;;;3.90;3.60;;;;;;;;;;5019596;28;20051;-77
2022/05/02 15:47:14;;;;;;;3.47;3.20;;;;;;;;;;5019711;28;20028;-78
2022/05/02 15:49:40;;;;;;;3.90;3.60;;;;;;;;;;5037447;28;20088;-78